sensor_id;sensor_type;location;lat;lon;timestamp;P1;durP1;ratioP1;P2;durP2;ratioP2
17380;SDS011;8808;52.478;13.378;2023-07-31T00:01:47;2.73;;;1.70;;
17380;SDS011;8808;52.478;13.378;2023-07-31T00:04:14;2.07;;;1.60;;
17380;SDS011;8808;52.478;13.378;2023-07-31T00:06:41;5.07;;;1.63;;
17380;SDS011;8808;52.478;13.378;2023-07-31T00:09:10;3.97;;;1.80;;
17380;SDS011;8808;52.478;13.378;2023-07-31T00:11:37;1.63;;;1.30;;
17380;SDS011;8808;52.478;13.378;2023-07-31T00:14:04;2.47;;;1.30;;
17380;SDS011;8808;52.478;13.378;2023-07-31T00:16:31;3.73;;;1.50;;
17380;SDS011;8808;52.478;13.378;2023-07-31T00:18:58;2.47;;;1.67;;
17380;SDS011;8808;52.478;13.378;2023-07-31T00:21:25;3.57;;;1.80;;
17380;SDS011;8808;52.478;13.378;2023-07-31T00:23:52;2.50;;;1.30;;
17380;SDS011;8808;52.478;13.378;2023-07-31T00:26:20;4.60;;;1.70;;
17380;SDS011;8808;52.478;13.378;2023-07-31T00:28:47;1.73;;;1.50;;
17380;SDS011;8808;52.478;13.378;2023-07-31T00:31:14;7.03;;;1.67;;
17380;SDS011;8808;52.478;13.378;2023-07-31T00:33:41;7.17;;;1.90;;
17380;SDS011;8808;52.478;13.378;2023-07-31T00:36:08;6.17;;;1.60;;
17380;SDS011;8808;52.478;13.378;2023-07-31T00:38:35;6.03;;;1.90;;
17380;SDS011;8808;52.478;13.378;2023-07-31T00:41:02;4.63;;;1.50;;
17380;SDS011;8808;52.478;13.378;2023-07-31T00:43:31;7.27;;;2.03;;
17380;SDS011;8808;52.478;13.378;2023-07-31T00:45:58;4.17;;;2.13;;
17380;SDS011;8808;52.478;13.378;2023-07-31T00:48:24;3.70;;;1.60;;
17380;SDS011;8808;52.478;13.378;2023-07-31T00:50:52;3.77;;;1.70;;
17380;SDS011;8808;52.478;13.378;2023-07-31T00:53:19;4.37;;;1.80;;
17380;SDS011;8808;52.478;13.378;2023-07-31T00:55:46;2.53;;;1.70;;
17380;SDS011;8808;52.478;13.378;2023-07-31T00:58:14;2.27;;;1.80;;
17380;SDS011;8808;52.478;13.378;2023-07-31T01:03:18;8.20;;;2.00;;
17380;SDS011;8808;52.478;13.378;2023-07-31T01:05:48;6.40;;;2.37;;
17380;SDS011;8808;52.478;13.378;2023-07-31T01:08:23;3.17;;;1.80;;
17380;SDS011;8808;52.478;13.378;2023-07-31T01:10:56;5.23;;;2.07;;
17380;SDS011;8808;52.478;13.378;2023-07-31T01:13:27;2.43;;;2.00;;
17380;SDS011;8808;52.478;13.378;2023-07-31T01:15:54;4.87;;;2.07;;
17380;SDS011;8808;52.478;13.378;2023-07-31T01:18:23;3.67;;;1.90;;
17380;SDS011;8808;52.478;13.378;2023-07-31T01:20:53;5.13;;;2.10;;
17380;SDS011;8808;52.478;13.378;2023-07-31T01:23:42;5.33;;;1.97;;
17380;SDS011;8808;52.478;13.378;2023-07-31T01:26:25;5.60;;;2.43;;
17380;SDS011;8808;52.478;13.378;2023-07-31T01:28:56;3.63;;;1.93;;
17380;SDS011;8808;52.478;13.378;2023-07-31T01:31:28;3.30;;;2.00;;
17380;SDS011;8808;52.478;13.378;2023-07-31T01:33:57;5.20;;;2.00;;
17380;SDS011;8808;52.478;13.378;2023-07-31T01:36:27;6.50;;;2.00;;
17380;SDS011;8808;52.478;13.378;2023-07-31T01:38:57;4.83;;;2.20;;
17380;SDS011;8808;52.478;13.378;2023-07-31T01:41:26;4.30;;;2.00;;
17380;SDS011;8808;52.478;13.378;2023-07-31T01:43:53;5.63;;;1.97;;
17380;SDS011;8808;52.478;13.378;2023-07-31T01:46:20;5.10;;;2.10;;
17380;SDS011;8808;52.478;13.378;2023-07-31T01:48:47;3.67;;;1.87;;
17380;SDS011;8808;52.478;13.378;2023-07-31T01:51:14;6.73;;;2.13;;
17380;SDS011;8808;52.478;13.378;2023-07-31T01:53:41;2.50;;;2.03;;
17380;SDS011;8808;52.478;13.378;2023-07-31T01:56:08;6.27;;;2.23;;
17380;SDS011;8808;52.478;13.378;2023-07-31T01:58:37;3.87;;;2.10;;
17380;SDS011;8808;52.478;13.378;2023-07-31T02:01:04;5.90;;;2.37;;
17380;SDS011;8808;52.478;13.378;2023-07-31T02:03:31;2.97;;;2.13;;
17380;SDS011;8808;52.478;13.378;2023-07-31T02:05:58;5.43;;;2.57;;
17380;SDS011;8808;52.478;13.378;2023-07-31T02:08:25;7.40;;;2.17;;
17380;SDS011;8808;52.478;13.378;2023-07-31T02:10:52;6.23;;;2.50;;
17380;SDS011;8808;52.478;13.378;2023-07-31T02:13:19;5.00;;;1.80;;
17380;SDS011;8808;52.478;13.378;2023-07-31T02:15:48;6.17;;;2.40;;
17380;SDS011;8808;52.478;13.378;2023-07-31T02:18:15;5.37;;;2.53;;
17380;SDS011;8808;52.478;13.378;2023-07-31T02:20:42;3.53;;;2.20;;
17380;SDS011;8808;52.478;13.378;2023-07-31T02:23:11;4.70;;;2.50;;
17380;SDS011;8808;52.478;13.378;2023-07-31T02:25:38;4.47;;;2.27;;
17380;SDS011;8808;52.478;13.378;2023-07-31T02:28:05;6.10;;;2.83;;
17380;SDS011;8808;52.478;13.378;2023-07-31T02:30:32;6.53;;;2.40;;
17380;SDS011;8808;52.478;13.378;2023-07-31T02:33:00;5.60;;;2.70;;
17380;SDS011;8808;52.478;13.378;2023-07-31T02:35:27;5.27;;;2.63;;
17380;SDS011;8808;52.478;13.378;2023-07-31T02:37:54;10.13;;;2.87;;
17380;SDS011;8808;52.478;13.378;2023-07-31T02:40:21;6.23;;;2.70;;
17380;SDS011;8808;52.478;13.378;2023-07-31T02:42:48;5.90;;;2.87;;
17380;SDS011;8808;52.478;13.378;2023-07-31T02:45:15;4.33;;;2.80;;
17380;SDS011;8808;52.478;13.378;2023-07-31T02:47:42;8.80;;;3.20;;
17380;SDS011;8808;52.478;13.378;2023-07-31T02:50:10;5.77;;;2.60;;
17380;SDS011;8808;52.478;13.378;2023-07-31T02:52:37;6.73;;;2.90;;
17380;SDS011;8808;52.478;13.378;2023-07-31T02:55:05;6.63;;;3.20;;
17380;SDS011;8808;52.478;13.378;2023-07-31T02:57:33;6.87;;;3.40;;
17380;SDS011;8808;52.478;13.378;2023-07-31T02:59:59;7.20;;;3.17;;
17380;SDS011;8808;52.478;13.378;2023-07-31T03:02:27;8.07;;;3.17;;
17380;SDS011;8808;52.478;13.378;2023-07-31T03:04:54;5.40;;;3.00;;
17380;SDS011;8808;52.478;13.378;2023-07-31T03:07:23;8.37;;;3.33;;
17380;SDS011;8808;52.478;13.378;2023-07-31T03:09:50;6.57;;;3.37;;
17380;SDS011;8808;52.478;13.378;2023-07-31T03:12:17;7.07;;;3.13;;
17380;SDS011;8808;52.478;13.378;2023-07-31T03:14:44;5.27;;;3.27;;
17380;SDS011;8808;52.478;13.378;2023-07-31T03:17:11;12.23;;;3.93;;
17380;SDS011;8808;52.478;13.378;2023-07-31T03:19:38;9.93;;;3.70;;
17380;SDS011;8808;52.478;13.378;2023-07-31T03:22:05;8.10;;;3.30;;
17380;SDS011;8808;52.478;13.378;2023-07-31T03:24:34;8.37;;;3.80;;
17380;SDS011;8808;52.478;13.378;2023-07-31T03:27:00;7.93;;;3.80;;
17380;SDS011;8808;52.478;13.378;2023-07-31T03:29:27;5.03;;;3.40;;
17380;SDS011;8808;52.478;13.378;2023-07-31T03:31:54;6.13;;;3.60;;
17380;SDS011;8808;52.478;13.378;2023-07-31T03:34:21;6.50;;;3.27;;
17380;SDS011;8808;52.478;13.378;2023-07-31T03:36:48;12.80;;;3.37;;
17380;SDS011;8808;52.478;13.378;2023-07-31T03:39:15;5.40;;;3.37;;
17380;SDS011;8808;52.478;13.378;2023-07-31T03:41:43;6.87;;;3.00;;
17380;SDS011;8808;52.478;13.378;2023-07-31T03:44:10;11.00;;;3.67;;
17380;SDS011;8808;52.478;13.378;2023-07-31T03:46:37;9.40;;;4.03;;
17380;SDS011;8808;52.478;13.378;2023-07-31T03:49:04;5.37;;;3.50;;
17380;SDS011;8808;52.478;13.378;2023-07-31T03:51:31;8.40;;;3.80;;
17380;SDS011;8808;52.478;13.378;2023-07-31T03:53:58;8.90;;;3.50;;
17380;SDS011;8808;52.478;13.378;2023-07-31T03:56:26;7.57;;;3.50;;
17380;SDS011;8808;52.478;13.378;2023-07-31T03:58:54;5.67;;;3.03;;
17380;SDS011;8808;52.478;13.378;2023-07-31T04:01:21;8.03;;;3.70;;
17380;SDS011;8808;52.478;13.378;2023-07-31T04:03:48;8.20;;;3.57;;
17380;SDS011;8808;52.478;13.378;2023-07-31T04:06:15;5.70;;;3.60;;
17380;SDS011;8808;52.478;13.378;2023-07-31T04:08:43;8.30;;;3.07;;
17380;SDS011;8808;52.478;13.378;2023-07-31T04:11:10;6.60;;;3.60;;
17380;SDS011;8808;52.478;13.378;2023-07-31T04:13:37;4.73;;;3.20;;
17380;SDS011;8808;52.478;13.378;2023-07-31T04:16:06;7.37;;;3.70;;
17380;SDS011;8808;52.478;13.378;2023-07-31T04:18:33;5.80;;;3.67;;
17380;SDS011;8808;52.478;13.378;2023-07-31T04:21:00;5.07;;;3.47;;
17380;SDS011;8808;52.478;13.378;2023-07-31T04:23:27;5.37;;;3.03;;
17380;SDS011;8808;52.478;13.378;2023-07-31T04:25:55;8.97;;;3.43;;
17380;SDS011;8808;52.478;13.378;2023-07-31T04:28:21;8.33;;;3.10;;
17380;SDS011;8808;52.478;13.378;2023-07-31T04:30:49;5.03;;;3.47;;
17380;SDS011;8808;52.478;13.378;2023-07-31T04:33:17;5.23;;;3.47;;
17380;SDS011;8808;52.478;13.378;2023-07-31T04:35:48;11.80;;;3.47;;
17380;SDS011;8808;52.478;13.378;2023-07-31T04:38:17;9.40;;;4.00;;
17380;SDS011;8808;52.478;13.378;2023-07-31T04:40:44;7.00;;;2.90;;
17380;SDS011;8808;52.478;13.378;2023-07-31T04:43:11;9.50;;;3.60;;
17380;SDS011;8808;52.478;13.378;2023-07-31T04:45:38;7.00;;;3.10;;
17380;SDS011;8808;52.478;13.378;2023-07-31T04:48:07;4.57;;;3.10;;
17380;SDS011;8808;52.478;13.378;2023-07-31T04:50:35;7.13;;;3.43;;
17380;SDS011;8808;52.478;13.378;2023-07-31T04:53:02;7.07;;;3.40;;
17380;SDS011;8808;52.478;13.378;2023-07-31T04:55:29;6.00;;;3.50;;
17380;SDS011;8808;52.478;13.378;2023-07-31T04:57:57;6.97;;;3.40;;
17380;SDS011;8808;52.478;13.378;2023-07-31T05:00:24;6.30;;;3.57;;
17380;SDS011;8808;52.478;13.378;2023-07-31T05:02:51;6.37;;;3.30;;
17380;SDS011;8808;52.478;13.378;2023-07-31T05:05:18;9.10;;;3.67;;
17380;SDS011;8808;52.478;13.378;2023-07-31T05:07:46;7.40;;;3.30;;
17380;SDS011;8808;52.478;13.378;2023-07-31T05:10:13;7.30;;;3.43;;
17380;SDS011;8808;52.478;13.378;2023-07-31T05:12:40;8.93;;;3.33;;
17380;SDS011;8808;52.478;13.378;2023-07-31T05:15:08;6.20;;;3.20;;
17380;SDS011;8808;52.478;13.378;2023-07-31T05:17:35;8.27;;;3.23;;
17380;SDS011;8808;52.478;13.378;2023-07-31T05:20:02;5.13;;;3.03;;
17380;SDS011;8808;52.478;13.378;2023-07-31T05:22:29;10.27;;;3.30;;
17380;SDS011;8808;52.478;13.378;2023-07-31T05:24:58;7.47;;;3.77;;
17380;SDS011;8808;52.478;13.378;2023-07-31T05:27:24;11.63;;;3.43;;
17380;SDS011;8808;52.478;13.378;2023-07-31T05:29:52;11.33;;;2.93;;
17380;SDS011;8808;52.478;13.378;2023-07-31T05:32:19;7.13;;;3.27;;
17380;SDS011;8808;52.478;13.378;2023-07-31T05:34:47;4.50;;;2.83;;
17380;SDS011;8808;52.478;13.378;2023-07-31T05:37:16;9.30;;;3.33;;
17380;SDS011;8808;52.478;13.378;2023-07-31T05:39:43;9.87;;;3.33;;
17380;SDS011;8808;52.478;13.378;2023-07-31T05:42:12;7.73;;;3.10;;
17380;SDS011;8808;52.478;13.378;2023-07-31T05:44:39;9.43;;;3.20;;
17380;SDS011;8808;52.478;13.378;2023-07-31T05:47:06;6.77;;;3.00;;
17380;SDS011;8808;52.478;13.378;2023-07-31T05:49:33;7.57;;;3.07;;
17380;SDS011;8808;52.478;13.378;2023-07-31T05:52:00;7.53;;;3.07;;
17380;SDS011;8808;52.478;13.378;2023-07-31T05:54:27;6.20;;;2.97;;
17380;SDS011;8808;52.478;13.378;2023-07-31T05:56:54;10.83;;;3.27;;
17380;SDS011;8808;52.478;13.378;2023-07-31T05:59:22;5.97;;;2.60;;
17380;SDS011;8808;52.478;13.378;2023-07-31T06:01:49;9.33;;;2.80;;
17380;SDS011;8808;52.478;13.378;2023-07-31T06:04:16;10.23;;;2.60;;
17380;SDS011;8808;52.478;13.378;2023-07-31T06:06:43;4.90;;;2.53;;
17380;SDS011;8808;52.478;13.378;2023-07-31T06:09:10;4.97;;;2.50;;
17380;SDS011;8808;52.478;13.378;2023-07-31T06:11:37;4.50;;;2.80;;
17380;SDS011;8808;52.478;13.378;2023-07-31T06:14:04;6.73;;;2.90;;
17380;SDS011;8808;52.478;13.378;2023-07-31T06:16:32;6.53;;;3.17;;
17380;SDS011;8808;52.478;13.378;2023-07-31T06:18:59;4.13;;;2.20;;
17380;SDS011;8808;52.478;13.378;2023-07-31T06:21:26;5.90;;;2.93;;
17380;SDS011;8808;52.478;13.378;2023-07-31T06:23:53;7.23;;;2.70;;
17380;SDS011;8808;52.478;13.378;2023-07-31T06:26:20;4.20;;;2.50;;
17380;SDS011;8808;52.478;13.378;2023-07-31T06:28:47;6.73;;;2.63;;
17380;SDS011;8808;52.478;13.378;2023-07-31T06:31:14;5.37;;;2.33;;
17380;SDS011;8808;52.478;13.378;2023-07-31T06:33:42;4.60;;;2.47;;
17380;SDS011;8808;52.478;13.378;2023-07-31T06:36:09;4.97;;;2.80;;
17380;SDS011;8808;52.478;13.378;2023-07-31T06:38:36;6.57;;;2.37;;
17380;SDS011;8808;52.478;13.378;2023-07-31T06:41:03;6.90;;;2.40;;
17380;SDS011;8808;52.478;13.378;2023-07-31T06:43:30;7.57;;;2.47;;
17380;SDS011;8808;52.478;13.378;2023-07-31T06:45:57;6.40;;;2.50;;
17380;SDS011;8808;52.478;13.378;2023-07-31T06:48:30;3.63;;;2.20;;
17380;SDS011;8808;52.478;13.378;2023-07-31T06:50:58;7.67;;;2.63;;
17380;SDS011;8808;52.478;13.378;2023-07-31T06:53:25;4.67;;;2.17;;
17380;SDS011;8808;52.478;13.378;2023-07-31T06:55:52;9.50;;;2.30;;
17380;SDS011;8808;52.478;13.378;2023-07-31T06:58:19;7.20;;;2.27;;
17380;SDS011;8808;52.478;13.378;2023-07-31T07:00:46;7.27;;;2.70;;
17380;SDS011;8808;52.478;13.378;2023-07-31T07:03:14;3.97;;;2.23;;
17380;SDS011;8808;52.478;13.378;2023-07-31T07:05:42;5.57;;;2.20;;
17380;SDS011;8808;52.478;13.378;2023-07-31T07:08:10;7.87;;;2.30;;
17380;SDS011;8808;52.478;13.378;2023-07-31T07:10:37;4.27;;;2.07;;
17380;SDS011;8808;52.478;13.378;2023-07-31T07:13:04;4.67;;;2.37;;
17380;SDS011;8808;52.478;13.378;2023-07-31T07:15:31;9.13;;;2.50;;
17380;SDS011;8808;52.478;13.378;2023-07-31T07:17:58;5.47;;;2.30;;
17380;SDS011;8808;52.478;13.378;2023-07-31T07:20:25;6.07;;;2.40;;
17380;SDS011;8808;52.478;13.378;2023-07-31T07:22:52;5.40;;;2.40;;
17380;SDS011;8808;52.478;13.378;2023-07-31T07:25:20;6.00;;;2.60;;
17380;SDS011;8808;52.478;13.378;2023-07-31T07:27:47;6.10;;;2.30;;
17380;SDS011;8808;52.478;13.378;2023-07-31T07:30:14;3.87;;;2.20;;
17380;SDS011;8808;52.478;13.378;2023-07-31T07:32:42;7.17;;;2.50;;
17380;SDS011;8808;52.478;13.378;2023-07-31T07:35:09;8.33;;;2.60;;
17380;SDS011;8808;52.478;13.378;2023-07-31T07:37:36;4.50;;;2.50;;
17380;SDS011;8808;52.478;13.378;2023-07-31T07:40:03;6.73;;;2.27;;
17380;SDS011;8808;52.478;13.378;2023-07-31T07:42:32;4.40;;;2.63;;
17380;SDS011;8808;52.478;13.378;2023-07-31T07:44:59;4.23;;;2.20;;
17380;SDS011;8808;52.478;13.378;2023-07-31T07:47:27;5.03;;;2.23;;
17380;SDS011;8808;52.478;13.378;2023-07-31T07:49:54;5.07;;;2.10;;
17380;SDS011;8808;52.478;13.378;2023-07-31T07:52:21;3.27;;;2.03;;
17380;SDS011;8808;52.478;13.378;2023-07-31T07:54:47;6.10;;;2.50;;
17380;SDS011;8808;52.478;13.378;2023-07-31T07:57:15;5.17;;;2.43;;
17380;SDS011;8808;52.478;13.378;2023-07-31T07:59:43;5.80;;;2.40;;
17380;SDS011;8808;52.478;13.378;2023-07-31T08:02:10;4.10;;;2.47;;
17380;SDS011;8808;52.478;13.378;2023-07-31T08:04:37;5.47;;;2.17;;
17380;SDS011;8808;52.478;13.378;2023-07-31T08:07:04;4.07;;;2.00;;
17380;SDS011;8808;52.478;13.378;2023-07-31T08:09:31;6.13;;;2.10;;
17380;SDS011;8808;52.478;13.378;2023-07-31T08:11:58;5.77;;;2.60;;
17380;SDS011;8808;52.478;13.378;2023-07-31T08:14:27;4.63;;;2.20;;
17380;SDS011;8808;52.478;13.378;2023-07-31T08:16:56;3.90;;;2.20;;
17380;SDS011;8808;52.478;13.378;2023-07-31T08:19:23;3.50;;;2.00;;
17380;SDS011;8808;52.478;13.378;2023-07-31T08:21:50;3.37;;;2.10;;
17380;SDS011;8808;52.478;13.378;2023-07-31T08:24:17;3.83;;;2.07;;
17380;SDS011;8808;52.478;13.378;2023-07-31T08:26:44;6.07;;;1.90;;
17380;SDS011;8808;52.478;13.378;2023-07-31T08:29:10;4.23;;;2.10;;
17380;SDS011;8808;52.478;13.378;2023-07-31T08:31:38;4.17;;;2.13;;
17380;SDS011;8808;52.478;13.378;2023-07-31T08:34:06;7.00;;;2.27;;
17380;SDS011;8808;52.478;13.378;2023-07-31T08:36:33;3.93;;;2.40;;
17380;SDS011;8808;52.478;13.378;2023-07-31T08:39:00;6.50;;;2.40;;
17380;SDS011;8808;52.478;13.378;2023-07-31T08:41:27;2.70;;;1.90;;
17380;SDS011;8808;52.478;13.378;2023-07-31T08:43:54;5.60;;;2.60;;
17380;SDS011;8808;52.478;13.378;2023-07-31T08:46:22;3.67;;;2.37;;
17380;SDS011;8808;52.478;13.378;2023-07-31T08:48:50;4.17;;;2.30;;
17380;SDS011;8808;52.478;13.378;2023-07-31T08:51:20;4.37;;;2.33;;
17380;SDS011;8808;52.478;13.378;2023-07-31T08:53:47;4.87;;;2.07;;
17380;SDS011;8808;52.478;13.378;2023-07-31T08:56:14;3.87;;;2.17;;
17380;SDS011;8808;52.478;13.378;2023-07-31T08:58:42;5.57;;;2.37;;
17380;SDS011;8808;52.478;13.378;2023-07-31T09:01:10;5.97;;;2.27;;
17380;SDS011;8808;52.478;13.378;2023-07-31T09:03:37;6.13;;;2.23;;
17380;SDS011;8808;52.478;13.378;2023-07-31T09:06:06;3.47;;;2.33;;
17380;SDS011;8808;52.478;13.378;2023-07-31T09:08:35;5.37;;;2.33;;
17380;SDS011;8808;52.478;13.378;2023-07-31T09:11:07;3.70;;;2.07;;
17380;SDS011;8808;52.478;13.378;2023-07-31T09:13:34;4.13;;;2.43;;
17380;SDS011;8808;52.478;13.378;2023-07-31T09:16:01;3.73;;;2.03;;
17380;SDS011;8808;52.478;13.378;2023-07-31T09:18:28;3.93;;;1.57;;
17380;SDS011;8808;52.478;13.378;2023-07-31T09:21:01;2.53;;;1.47;;
17380;SDS011;8808;52.478;13.378;2023-07-31T09:23:40;2.60;;;1.40;;
17380;SDS011;8808;52.478;13.378;2023-07-31T09:26:09;1.57;;;1.43;;
17380;SDS011;8808;52.478;13.378;2023-07-31T09:28:36;2.77;;;1.20;;
17380;SDS011;8808;52.478;13.378;2023-07-31T09:31:03;2.13;;;1.10;;
17380;SDS011;8808;52.478;13.378;2023-07-31T09:33:30;1.23;;;1.13;;
17380;SDS011;8808;52.478;13.378;2023-07-31T09:35:58;1.77;;;1.50;;
17380;SDS011;8808;52.478;13.378;2023-07-31T09:38:26;2.53;;;1.20;;
17380;SDS011;8808;52.478;13.378;2023-07-31T09:40:56;3.43;;;1.23;;
17380;SDS011;8808;52.478;13.378;2023-07-31T09:43:25;2.03;;;1.00;;
17380;SDS011;8808;52.478;13.378;2023-07-31T09:45:54;2.17;;;1.30;;
17380;SDS011;8808;52.478;13.378;2023-07-31T09:48:23;4.50;;;0.80;;
17380;SDS011;8808;52.478;13.378;2023-07-31T09:50:52;1.20;;;0.87;;
17380;SDS011;8808;52.478;13.378;2023-07-31T09:53:20;1.30;;;1.10;;
17380;SDS011;8808;52.478;13.378;2023-07-31T09:55:57;1.10;;;1.00;;
17380;SDS011;8808;52.478;13.378;2023-07-31T09:58:24;3.80;;;1.30;;
17380;SDS011;8808;52.478;13.378;2023-07-31T10:00:54;1.87;;;1.30;;
17380;SDS011;8808;52.478;13.378;2023-07-31T10:03:23;2.80;;;1.73;;
17380;SDS011;8808;52.478;13.378;2023-07-31T10:05:52;4.07;;;1.97;;
17380;SDS011;8808;52.478;13.378;2023-07-31T10:08:23;3.27;;;2.17;;
17380;SDS011;8808;52.478;13.378;2023-07-31T10:10:59;2.60;;;1.90;;
17380;SDS011;8808;52.478;13.378;2023-07-31T10:13:27;3.20;;;2.13;;
17380;SDS011;8808;52.478;13.378;2023-07-31T10:15:58;4.47;;;2.50;;
17380;SDS011;8808;52.478;13.378;2023-07-31T10:18:26;6.80;;;2.93;;
17380;SDS011;8808;52.478;13.378;2023-07-31T10:20:54;5.40;;;2.40;;
17380;SDS011;8808;52.478;13.378;2023-07-31T10:23:22;6.73;;;2.83;;
17380;SDS011;8808;52.478;13.378;2023-07-31T10:25:50;4.33;;;2.70;;
17380;SDS011;8808;52.478;13.378;2023-07-31T10:28:21;9.23;;;3.10;;
17380;SDS011;8808;52.478;13.378;2023-07-31T10:30:50;7.87;;;3.03;;
17380;SDS011;8808;52.478;13.378;2023-07-31T10:33:18;8.33;;;3.20;;
17380;SDS011;8808;52.478;13.378;2023-07-31T10:35:46;5.63;;;3.27;;
17380;SDS011;8808;52.478;13.378;2023-07-31T10:38:14;7.47;;;3.10;;
17380;SDS011;8808;52.478;13.378;2023-07-31T10:40:41;4.93;;;3.07;;
17380;SDS011;8808;52.478;13.378;2023-07-31T10:43:10;5.57;;;3.13;;
17380;SDS011;8808;52.478;13.378;2023-07-31T10:45:52;6.80;;;3.43;;
17380;SDS011;8808;52.478;13.378;2023-07-31T10:48:20;4.87;;;2.87;;
17380;SDS011;8808;52.478;13.378;2023-07-31T10:50:48;11.03;;;3.43;;
17380;SDS011;8808;52.478;13.378;2023-07-31T10:53:22;10.10;;;3.53;;
17380;SDS011;8808;52.478;13.378;2023-07-31T10:55:50;7.65;;;2.97;;
17380;SDS011;8808;52.478;13.378;2023-07-31T10:58:17;9.25;;;3.50;;
17380;SDS011;8808;52.478;13.378;2023-07-31T11:00:47;5.77;;;3.10;;
17380;SDS011;8808;52.478;13.378;2023-07-31T11:03:14;6.77;;;3.20;;
17380;SDS011;8808;52.478;13.378;2023-07-31T11:05:49;5.03;;;2.90;;
17380;SDS011;8808;52.478;13.378;2023-07-31T11:08:19;5.77;;;3.00;;
17380;SDS011;8808;52.478;13.378;2023-07-31T11:10:48;5.10;;;2.90;;
17380;SDS011;8808;52.478;13.378;2023-07-31T11:13:16;5.63;;;2.30;;
17380;SDS011;8808;52.478;13.378;2023-07-31T11:15:43;5.53;;;2.67;;
17380;SDS011;8808;52.478;13.378;2023-07-31T11:18:11;8.90;;;2.88;;
17380;SDS011;8808;52.478;13.378;2023-07-31T11:20:38;4.68;;;2.85;;
17380;SDS011;8808;52.478;13.378;2023-07-31T11:23:06;5.05;;;2.40;;
17380;SDS011;8808;52.478;13.378;2023-07-31T11:25:35;5.07;;;2.58;;
17380;SDS011;8808;52.478;13.378;2023-07-31T11:28:03;6.68;;;2.60;;
17380;SDS011;8808;52.478;13.378;2023-07-31T11:30:31;5.40;;;2.35;;
17380;SDS011;8808;52.478;13.378;2023-07-31T11:32:59;4.32;;;2.10;;
17380;SDS011;8808;52.478;13.378;2023-07-31T11:35:30;4.60;;;2.58;;
17380;SDS011;8808;52.478;13.378;2023-07-31T11:37:58;6.53;;;2.42;;
17380;SDS011;8808;52.478;13.378;2023-07-31T11:40:25;4.82;;;2.53;;
17380;SDS011;8808;52.478;13.378;2023-07-31T11:42:54;5.70;;;2.20;;
17380;SDS011;8808;52.478;13.378;2023-07-31T11:45:23;5.37;;;2.17;;
17380;SDS011;8808;52.478;13.378;2023-07-31T11:47:51;4.43;;;2.37;;
17380;SDS011;8808;52.478;13.378;2023-07-31T11:50:18;3.30;;;2.10;;
17380;SDS011;8808;52.478;13.378;2023-07-31T11:52:47;9.13;;;2.25;;
17380;SDS011;8808;52.478;13.378;2023-07-31T11:55:15;4.90;;;2.40;;
17380;SDS011;8808;52.478;13.378;2023-07-31T11:57:43;6.00;;;2.25;;
17380;SDS011;8808;52.478;13.378;2023-07-31T12:00:12;7.60;;;2.55;;
17380;SDS011;8808;52.478;13.378;2023-07-31T12:02:40;4.43;;;2.07;;
17380;SDS011;8808;52.478;13.378;2023-07-31T12:05:10;4.65;;;2.15;;
17380;SDS011;8808;52.478;13.378;2023-07-31T12:07:44;6.15;;;2.63;;
17380;SDS011;8808;52.478;13.378;2023-07-31T12:10:23;6.10;;;2.53;;
17380;SDS011;8808;52.478;13.378;2023-07-31T12:12:58;3.85;;;2.08;;
17380;SDS011;8808;52.478;13.378;2023-07-31T12:15:32;3.87;;;2.20;;
17380;SDS011;8808;52.478;13.378;2023-07-31T12:18:00;3.55;;;1.98;;
17380;SDS011;8808;52.478;13.378;2023-07-31T12:20:30;12.70;;;2.30;;
17380;SDS011;8808;52.478;13.378;2023-07-31T12:23:00;3.50;;;1.83;;
17380;SDS011;8808;52.478;13.378;2023-07-31T12:25:31;7.68;;;2.20;;
17380;SDS011;8808;52.478;13.378;2023-07-31T12:28:03;5.88;;;1.80;;
17380;SDS011;8808;52.478;13.378;2023-07-31T12:30:33;4.80;;;1.92;;
17380;SDS011;8808;52.478;13.378;2023-07-31T12:33:03;5.43;;;1.65;;
17380;SDS011;8808;52.478;13.378;2023-07-31T12:35:34;3.88;;;1.83;;
17380;SDS011;8808;52.478;13.378;2023-07-31T12:38:04;4.90;;;2.20;;
17380;SDS011;8808;52.478;13.378;2023-07-31T12:40:31;3.20;;;2.00;;
17380;SDS011;8808;52.478;13.378;2023-07-31T12:43:00;3.72;;;1.90;;
17380;SDS011;8808;52.478;13.378;2023-07-31T12:45:28;3.33;;;2.03;;
17380;SDS011;8808;52.478;13.378;2023-07-31T12:47:56;6.53;;;1.90;;
17380;SDS011;8808;52.478;13.378;2023-07-31T12:50:23;3.57;;;1.90;;
17380;SDS011;8808;52.478;13.378;2023-07-31T12:52:50;4.18;;;1.73;;
17380;SDS011;8808;52.478;13.378;2023-07-31T12:55:19;3.05;;;1.63;;
17380;SDS011;8808;52.478;13.378;2023-07-31T12:57:46;3.78;;;1.83;;
17380;SDS011;8808;52.478;13.378;2023-07-31T13:00:13;3.53;;;1.45;;
17380;SDS011;8808;52.478;13.378;2023-07-31T13:02:41;2.90;;;1.50;;
17380;SDS011;8808;52.478;13.378;2023-07-31T13:05:08;5.82;;;1.60;;
17380;SDS011;8808;52.478;13.378;2023-07-31T13:07:35;3.70;;;1.67;;
17380;SDS011;8808;52.478;13.378;2023-07-31T13:10:02;2.08;;;1.23;;
17380;SDS011;8808;52.478;13.378;2023-07-31T13:12:31;3.25;;;1.58;;
17380;SDS011;8808;52.478;13.378;2023-07-31T13:14:58;3.25;;;1.60;;
17380;SDS011;8808;52.478;13.378;2023-07-31T13:17:25;3.58;;;1.63;;
17380;SDS011;8808;52.478;13.378;2023-07-31T13:19:52;3.38;;;1.70;;
17380;SDS011;8808;52.478;13.378;2023-07-31T13:22:19;2.53;;;1.67;;
17380;SDS011;8808;52.478;13.378;2023-07-31T13:24:46;4.25;;;1.75;;
17380;SDS011;8808;52.478;13.378;2023-07-31T13:27:13;4.05;;;2.30;;
17380;SDS011;8808;52.478;13.378;2023-07-31T13:29:43;4.15;;;2.05;;
17380;SDS011;8808;52.478;13.378;2023-07-31T13:32:10;4.88;;;1.90;;
17380;SDS011;8808;52.478;13.378;2023-07-31T13:34:37;5.45;;;2.13;;
17380;SDS011;8808;52.478;13.378;2023-07-31T13:37:04;4.30;;;2.03;;
17380;SDS011;8808;52.478;13.378;2023-07-31T13:39:32;4.32;;;1.95;;
17380;SDS011;8808;52.478;13.378;2023-07-31T13:41:59;3.35;;;2.00;;
17380;SDS011;8808;52.478;13.378;2023-07-31T13:44:26;6.65;;;1.98;;
17380;SDS011;8808;52.478;13.378;2023-07-31T13:46:54;7.00;;;1.90;;
17380;SDS011;8808;52.478;13.378;2023-07-31T13:49:22;5.88;;;2.58;;
17380;SDS011;8808;52.478;13.378;2023-07-31T13:51:49;5.90;;;2.28;;
17380;SDS011;8808;52.478;13.378;2023-07-31T13:54:16;4.38;;;2.35;;
17380;SDS011;8808;52.478;13.378;2023-07-31T13:56:43;3.55;;;2.20;;
17380;SDS011;8808;52.478;13.378;2023-07-31T13:59:11;4.63;;;2.30;;
17380;SDS011;8808;52.478;13.378;2023-07-31T14:01:40;4.35;;;2.28;;
17380;SDS011;8808;52.478;13.378;2023-07-31T14:04:08;4.43;;;2.28;;
17380;SDS011;8808;52.478;13.378;2023-07-31T14:06:35;3.72;;;1.90;;
17380;SDS011;8808;52.478;13.378;2023-07-31T14:09:02;5.22;;;2.22;;
17380;SDS011;8808;52.478;13.378;2023-07-31T14:11:30;6.28;;;2.25;;
17380;SDS011;8808;52.478;13.378;2023-07-31T14:13:57;6.32;;;2.22;;
17380;SDS011;8808;52.478;13.378;2023-07-31T14:16:24;4.40;;;2.03;;
17380;SDS011;8808;52.478;13.378;2023-07-31T14:18:51;6.75;;;2.40;;
17380;SDS011;8808;52.478;13.378;2023-07-31T14:21:20;4.90;;;2.10;;
17380;SDS011;8808;52.478;13.378;2023-07-31T14:23:47;4.15;;;2.03;;
17380;SDS011;8808;52.478;13.378;2023-07-31T14:26:14;4.10;;;1.80;;
17380;SDS011;8808;52.478;13.378;2023-07-31T14:28:41;3.47;;;2.20;;
17380;SDS011;8808;52.478;13.378;2023-07-31T14:31:08;5.75;;;2.42;;
17380;SDS011;8808;52.478;13.378;2023-07-31T14:33:35;3.15;;;1.85;;
17380;SDS011;8808;52.478;13.378;2023-07-31T14:36:02;5.25;;;2.10;;
17380;SDS011;8808;52.478;13.378;2023-07-31T14:38:31;3.50;;;1.70;;
17380;SDS011;8808;52.478;13.378;2023-07-31T14:40:58;5.50;;;2.38;;
17380;SDS011;8808;52.478;13.378;2023-07-31T14:43:25;3.28;;;2.08;;
17380;SDS011;8808;52.478;13.378;2023-07-31T14:45:52;3.42;;;2.13;;
17380;SDS011;8808;52.478;13.378;2023-07-31T14:48:21;4.93;;;2.17;;
17380;SDS011;8808;52.478;13.378;2023-07-31T14:50:48;5.20;;;2.20;;
17380;SDS011;8808;52.478;13.378;2023-07-31T14:53:15;5.47;;;1.95;;
17380;SDS011;8808;52.478;13.378;2023-07-31T14:55:43;3.67;;;2.08;;